sensor_id;sensor_type;location;lat;lon;timestamp;P1;durP1;ratioP1;P2;durP2;ratioP2
36457;SDS011;22480;50.546;12.292;2023-06-22T00:00:52;22.50;;;20.17;;
36457;SDS011;22480;50.546;12.292;2023-06-22T00:03:19;21.55;;;18.85;;
36457;SDS011;22480;50.546;12.292;2023-06-22T00:05:46;22.38;;;19.20;;
36457;SDS011;22480;50.546;12.292;2023-06-22T00:08:12;26.90;;;21.65;;
36457;SDS011;22480;50.546;12.292;2023-06-22T00:10:38;27.42;;;22.80;;
36457;SDS011;22480;50.546;12.292;2023-06-22T00:13:05;28.23;;;24.63;;
36457;SDS011;22480;50.546;12.292;2023-06-22T00:15:32;30.13;;;23.95;;
36457;SDS011;22480;50.546;12.292;2023-06-22T00:17:58;25.67;;;22.42;;
36457;SDS011;22480;50.546;12.292;2023-06-22T00:20:25;26.92;;;22.63;;
36457;SDS011;22480;50.546;12.292;2023-06-22T00:22:58;26.73;;;22.10;;
36457;SDS011;22480;50.546;12.292;2023-06-22T00:25:25;24.73;;;21.02;;
36457;SDS011;22480;50.546;12.292;2023-06-22T00:27:51;24.42;;;20.55;;
36457;SDS011;22480;50.546;12.292;2023-06-22T00:30:17;20.75;;;18.15;;
36457;SDS011;22480;50.546;12.292;2023-06-22T00:32:44;24.15;;;19.65;;
36457;SDS011;22480;50.546;12.292;2023-06-22T00:35:11;22.73;;;20.05;;
36457;SDS011;22480;50.546;12.292;2023-06-22T00:37:38;20.80;;;17.27;;
36457;SDS011;22480;50.546;12.292;2023-06-22T00:40:09;20.27;;;17.83;;
36457;SDS011;22480;50.546;12.292;2023-06-22T00:42:39;20.52;;;18.30;;
36457;SDS011;22480;50.546;12.292;2023-06-22T00:45:07;20.27;;;17.75;;
36457;SDS011;22480;50.546;12.292;2023-06-22T00:47:34;22.85;;;17.65;;
36457;SDS011;22480;50.546;12.292;2023-06-22T00:50:03;20.30;;;16.98;;
36457;SDS011;22480;50.546;12.292;2023-06-22T00:52:32;18.92;;;16.92;;
36457;SDS011;22480;50.546;12.292;2023-06-22T00:55:00;18.60;;;16.50;;
36457;SDS011;22480;50.546;12.292;2023-06-22T00:57:27;18.48;;;16.58;;
36457;SDS011;22480;50.546;12.292;2023-06-22T00:59:54;18.92;;;16.95;;
36457;SDS011;22480;50.546;12.292;2023-06-22T01:02:20;20.38;;;16.83;;
36457;SDS011;22480;50.546;12.292;2023-06-22T01:04:46;21.20;;;17.27;;
36457;SDS011;22480;50.546;12.292;2023-06-22T01:13:29;20.80;;;16.45;;
36457;SDS011;22480;50.546;12.292;2023-06-22T01:16:02;18.33;;;15.95;;
36457;SDS011;22480;50.546;12.292;2023-06-22T01:18:33;21.05;;;17.95;;
36457;SDS011;22480;50.546;12.292;2023-06-22T01:21:01;20.98;;;17.05;;
36457;SDS011;22480;50.546;12.292;2023-06-22T01:23:37;21.45;;;17.33;;
36457;SDS011;22480;50.546;12.292;2023-06-22T01:26:17;18.20;;;16.30;;
36457;SDS011;22480;50.546;12.292;2023-06-22T01:28:54;19.27;;;17.10;;
36457;SDS011;22480;50.546;12.292;2023-06-22T01:31:23;21.58;;;16.05;;
36457;SDS011;22480;50.546;12.292;2023-06-22T01:33:51;18.38;;;15.43;;
36457;SDS011;22480;50.546;12.292;2023-06-22T01:36:19;18.10;;;16.17;;
36457;SDS011;22480;50.546;12.292;2023-06-22T01:38:47;18.45;;;16.48;;
36457;SDS011;22480;50.546;12.292;2023-06-22T01:41:13;21.83;;;17.95;;
36457;SDS011;22480;50.546;12.292;2023-06-22T01:43:41;22.00;;;19.45;;
36457;SDS011;22480;50.546;12.292;2023-06-22T01:46:07;21.55;;;18.65;;
36457;SDS011;22480;50.546;12.292;2023-06-22T01:48:33;21.23;;;18.95;;
36457;SDS011;22480;50.546;12.292;2023-06-22T01:51:00;21.92;;;19.55;;
36457;SDS011;22480;50.546;12.292;2023-06-22T01:53:27;20.63;;;18.50;;
36457;SDS011;22480;50.546;12.292;2023-06-22T01:55:53;20.80;;;18.70;;
36457;SDS011;22480;50.546;12.292;2023-06-22T01:58:20;20.65;;;18.23;;
36457;SDS011;22480;50.546;12.292;2023-06-22T02:00:50;20.48;;;18.27;;
36457;SDS011;22480;50.546;12.292;2023-06-22T02:03:23;18.45;;;16.63;;
36457;SDS011;22480;50.546;12.292;2023-06-22T02:06:04;20.65;;;18.45;;
36457;SDS011;22480;50.546;12.292;2023-06-22T02:08:46;19.00;;;16.98;;
36457;SDS011;22480;50.546;12.292;2023-06-22T02:11:16;18.35;;;16.30;;
36457;SDS011;22480;50.546;12.292;2023-06-22T02:13:45;20.70;;;17.92;;
36457;SDS011;22480;50.546;12.292;2023-06-22T02:16:12;20.35;;;18.17;;
36457;SDS011;22480;50.546;12.292;2023-06-22T02:18:45;21.08;;;18.42;;
36457;SDS011;22480;50.546;12.292;2023-06-22T02:21:18;21.25;;;18.13;;
36457;SDS011;22480;50.546;12.292;2023-06-22T02:23:45;20.98;;;18.77;;
36457;SDS011;22480;50.546;12.292;2023-06-22T02:26:11;23.65;;;19.23;;
36457;SDS011;22480;50.546;12.292;2023-06-22T02:28:37;21.60;;;19.08;;
36457;SDS011;22480;50.546;12.292;2023-06-22T02:31:03;24.77;;;21.67;;
36457;SDS011;22480;50.546;12.292;2023-06-22T02:33:29;25.63;;;21.08;;
36457;SDS011;22480;50.546;12.292;2023-06-22T02:35:55;24.88;;;20.45;;
36457;SDS011;22480;50.546;12.292;2023-06-22T02:38:21;21.70;;;19.40;;
36457;SDS011;22480;50.546;12.292;2023-06-22T02:40:50;26.52;;;22.08;;
36457;SDS011;22480;50.546;12.292;2023-06-22T02:43:16;24.15;;;20.98;;
36457;SDS011;22480;50.546;12.292;2023-06-22T02:45:43;25.10;;;20.17;;
36457;SDS011;22480;50.546;12.292;2023-06-22T02:48:10;27.63;;;20.90;;
36457;SDS011;22480;50.546;12.292;2023-06-22T02:50:35;22.98;;;20.38;;
36457;SDS011;22480;50.546;12.292;2023-06-22T02:53:03;21.83;;;19.50;;
36457;SDS011;22480;50.546;12.292;2023-06-22T02:55:33;23.73;;;21.05;;
36457;SDS011;22480;50.546;12.292;2023-06-22T02:57:59;24.02;;;20.65;;
36457;SDS011;22480;50.546;12.292;2023-06-22T03:00:30;23.75;;;19.83;;
36457;SDS011;22480;50.546;12.292;2023-06-22T03:02:57;23.38;;;20.67;;
36457;SDS011;22480;50.546;12.292;2023-06-22T03:05:23;26.15;;;20.40;;
36457;SDS011;22480;50.546;12.292;2023-06-22T03:07:49;26.05;;;20.65;;
36457;SDS011;22480;50.546;12.292;2023-06-22T03:10:16;24.30;;;20.33;;
36457;SDS011;22480;50.546;12.292;2023-06-22T03:12:42;26.58;;;22.58;;
36457;SDS011;22480;50.546;12.292;2023-06-22T03:15:09;26.27;;;22.52;;
36457;SDS011;22480;50.546;12.292;2023-06-22T03:17:37;26.08;;;21.25;;
36457;SDS011;22480;50.546;12.292;2023-06-22T03:20:04;26.20;;;21.92;;
36457;SDS011;22480;50.546;12.292;2023-06-22T03:25:00;23.42;;;20.25;;
36457;SDS011;22480;50.546;12.292;2023-06-22T03:27:26;23.83;;;20.73;;
36457;SDS011;22480;50.546;12.292;2023-06-22T03:29:52;23.23;;;20.58;;
36457;SDS011;22480;50.546;12.292;2023-06-22T03:32:18;24.63;;;19.73;;
36457;SDS011;22480;50.546;12.292;2023-06-22T03:34:44;23.75;;;19.95;;
36457;SDS011;22480;50.546;12.292;2023-06-22T03:37:13;22.88;;;20.45;;
36457;SDS011;22480;50.546;12.292;2023-06-22T03:39:40;22.40;;;19.75;;
36457;SDS011;22480;50.546;12.292;2023-06-22T03:42:07;23.30;;;20.85;;
36457;SDS011;22480;50.546;12.292;2023-06-22T03:44:33;22.83;;;20.45;;
36457;SDS011;22480;50.546;12.292;2023-06-22T03:47:01;23.55;;;21.05;;
36457;SDS011;22480;50.546;12.292;2023-06-22T03:49:32;24.63;;;21.30;;
36457;SDS011;22480;50.546;12.292;2023-06-22T03:51:59;22.58;;;19.55;;
36457;SDS011;22480;50.546;12.292;2023-06-22T03:54:25;20.90;;;18.38;;
36457;SDS011;22480;50.546;12.292;2023-06-22T03:56:51;20.90;;;16.95;;
36457;SDS011;22480;50.546;12.292;2023-06-22T03:59:17;19.20;;;17.15;;
36457;SDS011;22480;50.546;12.292;2023-06-22T04:01:42;19.63;;;16.25;;
36457;SDS011;22480;50.546;12.292;2023-06-22T04:04:08;19.77;;;15.88;;
36457;SDS011;22480;50.546;12.292;2023-06-22T04:06:34;24.60;;;16.88;;
36457;SDS011;22480;50.546;12.292;2023-06-22T04:09:00;22.02;;;17.65;;
36457;SDS011;22480;50.546;12.292;2023-06-22T04:11:25;20.38;;;17.95;;
36457;SDS011;22480;50.546;12.292;2023-06-22T04:13:51;26.67;;;20.23;;
36457;SDS011;22480;50.546;12.292;2023-06-22T04:16:17;23.33;;;20.88;;
36457;SDS011;22480;50.546;12.292;2023-06-22T04:18:43;26.30;;;23.35;;
36457;SDS011;22480;50.546;12.292;2023-06-22T04:21:09;26.48;;;23.55;;
36457;SDS011;22480;50.546;12.292;2023-06-22T04:23:35;27.73;;;24.83;;
36457;SDS011;22480;50.546;12.292;2023-06-22T04:26:01;29.67;;;25.55;;
36457;SDS011;22480;50.546;12.292;2023-06-22T04:28:27;27.23;;;24.52;;
36457;SDS011;22480;50.546;12.292;2023-06-22T04:30:52;26.50;;;21.60;;
36457;SDS011;22480;50.546;12.292;2023-06-22T04:33:23;23.45;;;20.95;;
36457;SDS011;22480;50.546;12.292;2023-06-22T04:35:48;20.75;;;18.58;;
36457;SDS011;22480;50.546;12.292;2023-06-22T04:38:15;18.25;;;16.35;;
36457;SDS011;22480;50.546;12.292;2023-06-22T04:40:41;16.55;;;14.85;;
36457;SDS011;22480;50.546;12.292;2023-06-22T04:43:06;18.60;;;15.98;;
36457;SDS011;22480;50.546;12.292;2023-06-22T04:45:32;14.98;;;13.57;;
36457;SDS011;22480;50.546;12.292;2023-06-22T04:47:58;16.10;;;13.70;;
36457;SDS011;22480;50.546;12.292;2023-06-22T04:50:24;14.38;;;12.88;;
36457;SDS011;22480;50.546;12.292;2023-06-22T04:52:50;13.50;;;12.18;;
36457;SDS011;22480;50.546;12.292;2023-06-22T04:55:16;13.20;;;11.80;;
36457;SDS011;22480;50.546;12.292;2023-06-22T04:57:46;13.88;;;12.57;;
36457;SDS011;22480;50.546;12.292;2023-06-22T05:00:16;13.43;;;12.13;;
36457;SDS011;22480;50.546;12.292;2023-06-22T05:02:44;14.13;;;12.70;;
36457;SDS011;22480;50.546;12.292;2023-06-22T05:05:10;13.57;;;12.27;;
36457;SDS011;22480;50.546;12.292;2023-06-22T05:07:49;15.48;;;13.38;;
36457;SDS011;22480;50.546;12.292;2023-06-22T05:10:18;16.73;;;13.57;;
36457;SDS011;22480;50.546;12.292;2023-06-22T05:12:45;16.90;;;13.77;;
36457;SDS011;22480;50.546;12.292;2023-06-22T05:15:11;16.55;;;13.70;;
36457;SDS011;22480;50.546;12.292;2023-06-22T05:17:37;12.52;;;11.23;;
36457;SDS011;22480;50.546;12.292;2023-06-22T05:22:34;12.40;;;10.57;;
36457;SDS011;22480;50.546;12.292;2023-06-22T05:24:59;10.00;;;9.05;;
36457;SDS011;22480;50.546;12.292;2023-06-22T05:27:25;9.25;;;8.30;;
36457;SDS011;22480;50.546;12.292;2023-06-22T05:29:51;9.27;;;8.38;;
36457;SDS011;22480;50.546;12.292;2023-06-22T05:32:16;8.57;;;7.40;;
36457;SDS011;22480;50.546;12.292;2023-06-22T05:34:43;8.90;;;6.97;;
36457;SDS011;22480;50.546;12.292;2023-06-22T05:37:09;10.32;;;7.45;;
36457;SDS011;22480;50.546;12.292;2023-06-22T05:39:35;8.27;;;7.35;;
36457;SDS011;22480;50.546;12.292;2023-06-22T05:42:05;9.32;;;7.13;;
36457;SDS011;22480;50.546;12.292;2023-06-22T05:44:31;8.18;;;7.38;;
36457;SDS011;22480;50.546;12.292;2023-06-22T05:46:58;7.72;;;6.80;;
36457;SDS011;22480;50.546;12.292;2023-06-22T05:49:24;7.78;;;6.55;;
36457;SDS011;22480;50.546;12.292;2023-06-22T05:51:57;7.22;;;6.53;;
36457;SDS011;22480;50.546;12.292;2023-06-22T05:54:24;7.28;;;6.47;;
36457;SDS011;22480;50.546;12.292;2023-06-22T05:56:50;9.93;;;7.20;;
36457;SDS011;22480;50.546;12.292;2023-06-22T05:59:16;7.63;;;6.85;;
36457;SDS011;22480;50.546;12.292;2023-06-22T06:01:42;9.43;;;7.22;;
36457;SDS011;22480;50.546;12.292;2023-06-22T06:04:08;9.73;;;7.72;;
36457;SDS011;22480;50.546;12.292;2023-06-22T06:06:34;9.82;;;8.82;;
36457;SDS011;22480;50.546;12.292;2023-06-22T06:09:00;10.65;;;9.23;;
36457;SDS011;22480;50.546;12.292;2023-06-22T06:11:26;10.02;;;9.00;;
36457;SDS011;22480;50.546;12.292;2023-06-22T06:13:52;12.23;;;9.43;;
36457;SDS011;22480;50.546;12.292;2023-06-22T06:16:17;11.10;;;9.45;;
36457;SDS011;22480;50.546;12.292;2023-06-22T06:18:43;12.82;;;9.65;;
36457;SDS011;22480;50.546;12.292;2023-06-22T06:21:09;13.55;;;9.73;;
36457;SDS011;22480;50.546;12.292;2023-06-22T06:23:34;10.68;;;9.60;;
36457;SDS011;22480;50.546;12.292;2023-06-22T06:26:00;14.32;;;9.18;;
36457;SDS011;22480;50.546;12.292;2023-06-22T06:28:26;10.38;;;9.40;;
36457;SDS011;22480;50.546;12.292;2023-06-22T06:30:52;13.27;;;8.98;;
36457;SDS011;22480;50.546;12.292;2023-06-22T06:33:18;13.75;;;9.43;;
36457;SDS011;22480;50.546;12.292;2023-06-22T06:35:46;9.90;;;8.90;;
36457;SDS011;22480;50.546;12.292;2023-06-22T06:38:11;9.15;;;8.27;;
36457;SDS011;22480;50.546;12.292;2023-06-22T06:40:37;12.65;;;9.45;;
36457;SDS011;22480;50.546;12.292;2023-06-22T06:43:03;10.05;;;9.05;;
36457;SDS011;22480;50.546;12.292;2023-06-22T06:45:29;10.38;;;8.40;;
36457;SDS011;22480;50.546;12.292;2023-06-22T06:47:56;9.52;;;8.50;;
36457;SDS011;22480;50.546;12.292;2023-06-22T06:50:22;9.35;;;8.35;;
36457;SDS011;22480;50.546;12.292;2023-06-22T06:52:47;8.73;;;7.93;;
36457;SDS011;22480;50.546;12.292;2023-06-22T06:55:15;9.50;;;8.50;;
36457;SDS011;22480;50.546;12.292;2023-06-22T06:57:41;11.27;;;8.70;;
36457;SDS011;22480;50.546;12.292;2023-06-22T07:00:08;11.25;;;9.98;;
36457;SDS011;22480;50.546;12.292;2023-06-22T07:02:45;11.20;;;8.90;;
36457;SDS011;22480;50.546;12.292;2023-06-22T07:05:12;12.55;;;9.07;;
36457;SDS011;22480;50.546;12.292;2023-06-22T07:07:38;12.10;;;8.65;;
36457;SDS011;22480;50.546;12.292;2023-06-22T07:10:07;10.35;;;8.15;;
36457;SDS011;22480;50.546;12.292;2023-06-22T07:12:33;9.95;;;8.30;;
36457;SDS011;22480;50.546;12.292;2023-06-22T07:15:03;10.48;;;8.27;;
36457;SDS011;22480;50.546;12.292;2023-06-22T07:17:36;11.77;;;9.45;;
36457;SDS011;22480;50.546;12.292;2023-06-22T07:20:03;10.50;;;8.73;;
36457;SDS011;22480;50.546;12.292;2023-06-22T07:22:37;10.30;;;9.25;;
36457;SDS011;22480;50.546;12.292;2023-06-22T07:25:04;10.27;;;7.90;;
36457;SDS011;22480;50.546;12.292;2023-06-22T07:27:44;10.68;;;8.43;;
36457;SDS011;22480;50.546;12.292;2023-06-22T07:30:11;10.43;;;9.15;;
36457;SDS011;22480;50.546;12.292;2023-06-22T07:32:38;9.40;;;8.35;;
36457;SDS011;22480;50.546;12.292;2023-06-22T07:35:03;8.40;;;7.60;;
36457;SDS011;22480;50.546;12.292;2023-06-22T07:37:30;9.35;;;8.30;;
36457;SDS011;22480;50.546;12.292;2023-06-22T07:39:55;10.13;;;9.10;;
36457;SDS011;22480;50.546;12.292;2023-06-22T07:42:24;10.73;;;9.63;;
36457;SDS011;22480;50.546;12.292;2023-06-22T07:44:50;9.95;;;8.95;;
36457;SDS011;22480;50.546;12.292;2023-06-22T07:47:16;10.13;;;8.85;;
36457;SDS011;22480;50.546;12.292;2023-06-22T07:49:44;12.27;;;8.32;;
36457;SDS011;22480;50.546;12.292;2023-06-22T07:52:11;9.35;;;8.20;;
36457;SDS011;22480;50.546;12.292;2023-06-22T07:54:36;10.00;;;8.10;;
36457;SDS011;22480;50.546;12.292;2023-06-22T07:57:02;13.32;;;8.88;;
36457;SDS011;22480;50.546;12.292;2023-06-22T07:59:28;9.32;;;8.18;;
36457;SDS011;22480;50.546;12.292;2023-06-22T08:01:54;8.80;;;8.00;;
36457;SDS011;22480;50.546;12.292;2023-06-22T08:04:20;8.63;;;7.50;;
36457;SDS011;22480;50.546;12.292;2023-06-22T08:06:46;8.10;;;6.93;;
36457;SDS011;22480;50.546;12.292;2023-06-22T08:09:12;8.23;;;7.38;;
36457;SDS011;22480;50.546;12.292;2023-06-22T08:11:37;8.48;;;7.70;;
36457;SDS011;22480;50.546;12.292;2023-06-22T08:14:03;10.05;;;7.60;;
36457;SDS011;22480;50.546;12.292;2023-06-22T08:16:29;11.45;;;7.82;;
36457;SDS011;22480;50.546;12.292;2023-06-22T08:18:54;8.13;;;7.13;;
36457;SDS011;22480;50.546;12.292;2023-06-22T08:21:21;8.35;;;7.28;;
36457;SDS011;22480;50.546;12.292;2023-06-22T08:23:47;6.47;;;5.95;;
36457;SDS011;22480;50.546;12.292;2023-06-22T08:26:14;6.70;;;6.10;;
36457;SDS011;22480;50.546;12.292;2023-06-22T08:28:39;7.43;;;6.72;;
36457;SDS011;22480;50.546;12.292;2023-06-22T08:31:05;6.93;;;6.22;;
36457;SDS011;22480;50.546;12.292;2023-06-22T08:33:31;6.97;;;6.38;;
36457;SDS011;22480;50.546;12.292;2023-06-22T08:35:57;7.25;;;6.50;;
36457;SDS011;22480;50.546;12.292;2023-06-22T08:38:23;6.95;;;6.15;;
36457;SDS011;22480;50.546;12.292;2023-06-22T08:40:49;9.55;;;6.78;;
36457;SDS011;22480;50.546;12.292;2023-06-22T08:43:15;14.27;;;8.25;;
36457;SDS011;22480;50.546;12.292;2023-06-22T08:45:41;7.57;;;6.88;;
36457;SDS011;22480;50.546;12.292;2023-06-22T08:48:06;9.15;;;7.03;;
36457;SDS011;22480;50.546;12.292;2023-06-22T08:50:32;7.95;;;6.55;;
36457;SDS011;22480;50.546;12.292;2023-06-22T08:52:58;7.53;;;6.82;;
36457;SDS011;22480;50.546;12.292;2023-06-22T08:55:24;7.80;;;7.03;;
36457;SDS011;22480;50.546;12.292;2023-06-22T08:57:49;9.32;;;6.90;;
36457;SDS011;22480;50.546;12.292;2023-06-22T09:00:16;7.65;;;6.95;;
36457;SDS011;22480;50.546;12.292;2023-06-22T09:02:45;9.65;;;7.28;;
36457;SDS011;22480;50.546;12.292;2023-06-22T09:05:11;9.65;;;7.28;;
36457;SDS011;22480;50.546;12.292;2023-06-22T09:07:37;13.77;;;7.88;;
36457;SDS011;22480;50.546;12.292;2023-06-22T09:10:03;10.23;;;7.30;;
36457;SDS011;22480;50.546;12.292;2023-06-22T09:12:30;8.40;;;7.25;;
36457;SDS011;22480;50.546;12.292;2023-06-22T09:14:58;7.53;;;6.82;;
36457;SDS011;22480;50.546;12.292;2023-06-22T09:17:25;7.63;;;6.82;;
36457;SDS011;22480;50.546;12.292;2023-06-22T09:19:51;7.78;;;6.97;;
36457;SDS011;22480;50.546;12.292;2023-06-22T09:22:17;8.30;;;7.53;;
36457;SDS011;22480;50.546;12.292;2023-06-22T09:24:43;7.78;;;7.03;;
36457;SDS011;22480;50.546;12.292;2023-06-22T09:27:08;7.70;;;7.00;;
36457;SDS011;22480;50.546;12.292;2023-06-22T09:29:34;6.88;;;6.10;;
36457;SDS011;22480;50.546;12.292;2023-06-22T09:32:00;6.78;;;5.95;;
36457;SDS011;22480;50.546;12.292;2023-06-22T09:34:26;10.27;;;7.07;;
36457;SDS011;22480;50.546;12.292;2023-06-22T09:36:52;8.57;;;6.63;;
36457;SDS011;22480;50.546;12.292;2023-06-22T09:39:18;7.35;;;6.63;;
36457;SDS011;22480;50.546;12.292;2023-06-22T09:41:44;6.95;;;6.35;;
36457;SDS011;22480;50.546;12.292;2023-06-22T09:44:10;6.80;;;6.20;;
36457;SDS011;22480;50.546;12.292;2023-06-22T09:46:35;8.32;;;6.32;;
36457;SDS011;22480;50.546;12.292;2023-06-22T09:49:01;7.45;;;6.57;;
36457;SDS011;22480;50.546;12.292;2023-06-22T09:51:27;6.82;;;6.20;;
36457;SDS011;22480;50.546;12.292;2023-06-22T09:53:52;8.32;;;6.30;;
36457;SDS011;22480;50.546;12.292;2023-06-22T09:56:21;7.45;;;6.57;;
36457;SDS011;22480;50.546;12.292;2023-06-22T09:58:47;6.60;;;5.75;;
36457;SDS011;22480;50.546;12.292;2023-06-22T10:01:15;7.65;;;5.95;;
36457;SDS011;22480;50.546;12.292;2023-06-22T10:03:41;6.57;;;5.88;;
36457;SDS011;22480;50.546;12.292;2023-06-22T10:06:07;6.57;;;5.95;;
36457;SDS011;22480;50.546;12.292;2023-06-22T10:08:34;8.48;;;5.80;;
36457;SDS011;22480;50.546;12.292;2023-06-22T10:11:00;6.65;;;6.05;;
36457;SDS011;22480;50.546;12.292;2023-06-22T10:13:26;7.70;;;5.80;;
36457;SDS011;22480;50.546;12.292;2023-06-22T10:15:52;6.80;;;6.10;;
36457;SDS011;22480;50.546;12.292;2023-06-22T10:18:18;7.60;;;6.00;;
36457;SDS011;22480;50.546;12.292;2023-06-22T10:20:48;8.50;;;5.82;;
36457;SDS011;22480;50.546;12.292;2023-06-22T10:23:18;6.07;;;5.47;;
36457;SDS011;22480;50.546;12.292;2023-06-22T10:25:45;7.25;;;5.65;;
36457;SDS011;22480;50.546;12.292;2023-06-22T10:28:11;5.65;;;5.15;;
36457;SDS011;22480;50.546;12.292;2023-06-22T10:30:37;6.22;;;5.43;;
36457;SDS011;22480;50.546;12.292;2023-06-22T10:33:10;7.45;;;5.43;;
36457;SDS011;22480;50.546;12.292;2023-06-22T10:35:37;9.60;;;5.47;;
36457;SDS011;22480;50.546;12.292;2023-06-22T10:38:03;6.97;;;5.53;;
36457;SDS011;22480;50.546;12.292;2023-06-22T10:40:29;7.93;;;5.93;;
36457;SDS011;22480;50.546;12.292;2023-06-22T10:42:55;5.75;;;5.25;;
36457;SDS011;22480;50.546;12.292;2023-06-22T10:45:21;7.35;;;5.75;;
36457;SDS011;22480;50.546;12.292;2023-06-22T10:47:47;8.02;;;5.30;;
36457;SDS011;22480;50.546;12.292;2023-06-22T10:50:12;7.53;;;5.13;;
36457;SDS011;22480;50.546;12.292;2023-06-22T10:52:39;6.15;;;5.45;;
36457;SDS011;22480;50.546;12.292;2023-06-22T10:55:06;6.13;;;5.53;;
36457;SDS011;22480;50.546;12.292;2023-06-22T10:57:33;7.40;;;5.35;;
36457;SDS011;22480;50.546;12.292;2023-06-22T10:59:59;5.60;;;5.05;;
36457;SDS011;22480;50.546;12.292;2023-06-22T11:02:24;6.20;;;5.40;;
36457;SDS011;22480;50.546;12.292;2023-06-22T11:04:53;7.88;;;5.13;;
36457;SDS011;22480;50.546;12.292;2023-06-22T11:07:19;5.50;;;4.80;;
36457;SDS011;22480;50.546;12.292;2023-06-22T11:09:44;6.03;;;5.32;;
36457;SDS011;22480;50.546;12.292;2023-06-22T11:12:10;7.07;;;5.15;;
36457;SDS011;22480;50.546;12.292;2023-06-22T11:14:36;6.03;;;5.35;;
36457;SDS011;22480;50.546;12.292;2023-06-22T11:17:03;6.15;;;5.60;;
36457;SDS011;22480;50.546;12.292;2023-06-22T11:19:29;5.53;;;5.03;;
36457;SDS011;22480;50.546;12.292;2023-06-22T11:21:55;7.07;;;5.30;;
36457;SDS011;22480;50.546;12.292;2023-06-22T11:24:20;7.22;;;4.95;;
36457;SDS011;22480;50.546;12.292;2023-06-22T11:26:46;8.23;;;4.97;;
36457;SDS011;22480;50.546;12.292;2023-06-22T11:29:12;5.72;;;4.80;;
36457;SDS011;22480;50.546;12.292;2023-06-22T11:31:38;5.25;;;4.75;;
36457;SDS011;22480;50.546;12.292;2023-06-22T11:34:04;6.45;;;5.10;;
36457;SDS011;22480;50.546;12.292;2023-06-22T11:36:29;7.63;;;5.00;;
36457;SDS011;22480;50.546;12.292;2023-06-22T11:38:58;6.32;;;4.60;;
36457;SDS011;22480;50.546;12.292;2023-06-22T11:41:24;5.55;;;5.05;;
36457;SDS011;22480;50.546;12.292;2023-06-22T11:43:49;6.95;;;4.75;;
36457;SDS011;22480;50.546;12.292;2023-06-22T11:46:15;5.68;;;5.07;;
36457;SDS011;22480;50.546;12.292;2023-06-22T11:48:41;5.35;;;4.80;;
36457;SDS011;22480;50.546;12.292;2023-06-22T11:51:06;5.63;;;4.95;;
36457;SDS011;22480;50.546;12.292;2023-06-22T11:53:33;5.65;;;4.70;;
36457;SDS011;22480;50.546;12.292;2023-06-22T11:56:00;5.00;;;4.53;;
36457;SDS011;22480;50.546;12.292;2023-06-22T11:58:26;4.63;;;4.13;;
36457;SDS011;22480;50.546;12.292;2023-06-22T12:00:52;5.57;;;5.07;;
36457;SDS011;22480;50.546;12.292;2023-06-22T12:03:19;5.38;;;4.88;;
36457;SDS011;22480;50.546;12.292;2023-06-22T12:05:46;6.88;;;5.25;;
36457;SDS011;22480;50.546;12.292;2023-06-22T12:08:12;5.55;;;4.97;;
36457;SDS011;22480;50.546;12.292;2023-06-22T12:10:39;5.20;;;4.70;;
36457;SDS011;22480;50.546;12.292;2023-06-22T12:13:05;7.32;;;4.70;;
36457;SDS011;22480;50.546;12.292;2023-06-22T12:15:30;6.22;;;5.22;;
36457;SDS011;22480;50.546;12.292;2023-06-22T12:17:56;6.45;;;4.80;;
36457;SDS011;22480;50.546;12.292;2023-06-22T12:20:22;5.88;;;5.20;;
36457;SDS011;22480;50.546;12.292;2023-06-22T12:22:47;7.80;;;4.97;;
36457;SDS011;22480;50.546;12.292;2023-06-22T12:25:16;8.98;;;5.30;;
36457;SDS011;22480;50.546;12.292;2023-06-22T12:27:42;5.78;;;5.18;;
36457;SDS011;22480;50.546;12.292;2023-06-22T12:30:08;5.65;;;4.72;;
36457;SDS011;22480;50.546;12.292;2023-06-22T12:32:34;6.63;;;4.95;;
36457;SDS011;22480;50.546;12.292;2023-06-22T12:34:59;6.60;;;4.85;;
36457;SDS011;22480;50.546;12.292;2023-06-22T12:37:25;5.32;;;4.82;;
36457;SDS011;22480;50.546;12.292;2023-06-22T12:39:51;5.40;;;4.80;;
36457;SDS011;22480;50.546;12.292;2023-06-22T12:42:16;5.93;;;4.90;;
36457;SDS011;22480;50.546;12.292;2023-06-22T12:44:42;6.45;;;5.75;;
36457;SDS011;22480;50.546;12.292;2023-06-22T12:47:08;7.38;;;5.22;;
36457;SDS011;22480;50.546;12.292;2023-06-22T12:49:35;6.18;;;5.13;;
36457;SDS011;22480;50.546;12.292;2023-06-22T12:52:01;6.60;;;4.70;;
36457;SDS011;22480;50.546;12.292;2023-06-22T12:54:27;7.13;;;4.82;;
36457;SDS011;22480;50.546;12.292;2023-06-22T12:56:54;7.20;;;4.97;;
36457;SDS011;22480;50.546;12.292;2023-06-22T12:59:20;5.82;;;5.13;;
36457;SDS011;22480;50.546;12.292;2023-06-22T13:01:46;5.88;;;5.15;;
36457;SDS011;22480;50.546;12.292;2023-06-22T13:04:12;6.70;;;5.03;;
36457;SDS011;22480;50.546;12.292;2023-06-22T13:06:42;5.20;;;4.70;;
36457;SDS011;22480;50.546;12.292;2023-06-22T13:09:14;6.78;;;4.72;;
36457;SDS011;22480;50.546;12.292;2023-06-22T13:11:41;9.15;;;5.05;;
36457;SDS011;22480;50.546;12.292;2023-06-22T13:14:07;6.20;;;4.75;;
36457;SDS011;22480;50.546;12.292;2023-06-22T13:16:33;7.00;;;5.10;;
36457;SDS011;22480;50.546;12.292;2023-06-22T13:18:59;5.15;;;4.60;;
36457;SDS011;22480;50.546;12.292;2023-06-22T13:21:24;6.85;;;5.15;;
36457;SDS011;22480;50.546;12.292;2023-06-22T13:23:50;8.18;;;5.05;;
36457;SDS011;22480;50.546;12.292;2023-06-22T13:26:16;8.30;;;5.07;;
36457;SDS011;22480;50.546;12.292;2023-06-22T13:28:42;8.40;;;5.38;;
36457;SDS011;22480;50.546;12.292;2023-06-22T13:31:07;7.72;;;5.40;;
36457;SDS011;22480;50.546;12.292;2023-06-22T13:33:33;7.63;;;5.22;;
36457;SDS011;22480;50.546;12.292;2023-06-22T13:35:59;8.13;;;5.47;;
36457;SDS011;22480;50.546;12.292;2023-06-22T13:38:25;7.50;;;5.50;;
36457;SDS011;22480;50.546;12.292;2023-06-22T13:40:50;6.95;;;5.10;;
36457;SDS011;22480;50.546;12.292;2023-06-22T13:43:16;6.57;;;5.40;;
36457;SDS011;22480;50.546;12.292;2023-06-22T13:45:42;7.30;;;5.60;;
36457;SDS011;22480;50.546;12.292;2023-06-22T13:48:08;6.00;;;5.38;;
36457;SDS011;22480;50.546;12.292;2023-06-22T13:50:34;6.18;;;5.53;;
36457;SDS011;22480;50.546;12.292;2023-06-22T13:53:00;5.57;;;5.03;;
36457;SDS011;22480;50.546;12.292;2023-06-22T13:55:26;6.78;;;5.00;;
36457;SDS011;22480;50.546;12.292;2023-06-22T13:57:51;6.00;;;5.35;;
36457;SDS011;22480;50.546;12.292;2023-06-22T14:00:18;8.73;;;5.40;;
36457;SDS011;22480;50.546;12.292;2023-06-22T14:02:44;7.97;;;5.38;;
36457;SDS011;22480;50.546;12.292;2023-06-22T14:05:10;8.60;;;5.95;;
36457;SDS011;22480;50.546;12.292;2023-06-22T14:07:36;9.77;;;6.30;;
36457;SDS011;22480;50.546;12.292;2023-06-22T14:10:02;6.28;;;5.50;;
36457;SDS011;22480;50.546;12.292;2023-06-22T14:12:29;7.18;;;5.13;;
36457;SDS011;22480;50.546;12.292;2023-06-22T14:14:54;6.78;;;6.05;;
36457;SDS011;22480;50.546;12.292;2023-06-22T14:17:20;7.95;;;5.70;;
36457;SDS011;22480;50.546;12.292;2023-06-22T14:19:51;7.40;;;5.55;;
36457;SDS011;22480;50.546;12.292;2023-06-22T14:22:20;6.60;;;5.47;;
36457;SDS011;22480;50.546;12.292;2023-06-22T14:24:47;10.93;;;5.43;;
36457;SDS011;22480;50.546;12.292;2023-06-22T14:27:13;7.57;;;5.68;;
36457;SDS011;22480;50.546;12.292;2023-06-22T14:29:39;9.48;;;5.78;;
36457;SDS011;22480;50.546;12.292;2023-06-22T14:32:06;8.43;;;5.72;;